createdAt,value
2022-09-06T00:00:31.442Z,24.10
2022-09-06T00:02:59.996Z,24.10
2022-09-06T00:05:30.445Z,24.20
2022-09-06T00:08:00.570Z,24.10
2022-09-06T00:10:29.473Z,24.10
2022-09-06T00:13:01.368Z,24.10
2022-09-06T00:15:29.693Z,24.20
2022-09-06T00:18:01.034Z,24.20
2022-09-06T00:20:31.943Z,24.30
2022-09-06T00:23:01.448Z,24.20
2022-09-06T00:25:30.361Z,24.20
2022-09-06T00:27:59.851Z,24.20
2022-09-06T00:30:29.391Z,24.20
2022-09-06T00:32:57.824Z,24.10
2022-09-06T00:35:27.713Z,24.10
2022-09-06T00:38:00.271Z,24.00
2022-09-06T00:40:30.312Z,24.10
2022-09-06T00:42:59.348Z,24.00
2022-09-06T00:45:29.464Z,23.90
2022-09-06T00:48:00.369Z,23.90
2022-09-06T00:50:29.927Z,24.10
2022-09-06T00:52:59.866Z,24.10
2022-09-06T00:55:28.720Z,24.00
2022-09-06T00:57:57.565Z,24.00
2022-09-06T01:00:26.008Z,23.90
2022-09-06T01:02:55.941Z,23.80
2022-09-06T01:05:29.140Z,23.60
2022-09-06T01:08:09.918Z,23.30
2022-09-06T01:11:02.234Z,22.70
2022-09-06T01:13:38.662Z,22.40
2022-09-06T01:16:14.059Z,22.10
2022-09-06T01:18:57.959Z,22.40
2022-09-06T01:21:45.659Z,22.50
2022-09-06T01:24:37.409Z,22.80
2022-09-06T01:27:32.488Z,22.80
2022-09-06T01:30:05.642Z,22.90
2022-09-06T01:32:42.521Z,22.90
2022-09-06T01:35:28.705Z,22.80
2022-09-06T01:37:58.129Z,22.70
2022-09-06T01:40:27.839Z,22.60
2022-09-06T01:42:58.909Z,22.20
2022-09-06T01:45:39.550Z,21.80
2022-09-06T01:48:18.256Z,21.60
2022-09-06T01:50:59.793Z,21.90
2022-09-06T01:53:46.363Z,22.20
2022-09-06T01:59:27.915Z,22.20
2022-09-06T02:02:05.058Z,21.90
2022-09-06T02:04:41.606Z,22.00
2022-09-06T02:07:16.851Z,21.80
2022-09-06T02:09:49.943Z,22.10
2022-09-06T02:12:20.139Z,22.40
2022-09-06T02:14:53.828Z,22.40
2022-09-06T02:17:27.323Z,22.30
2022-09-06T02:20:00.235Z,22.10
2022-09-06T02:22:33.062Z,21.80
2022-09-06T02:25:02.664Z,21.90
2022-09-06T02:27:31.270Z,22.10
2022-09-06T02:30:03.062Z,22.20
2022-09-06T02:32:33.959Z,22.20
2022-09-06T02:35:10.874Z,22.00
2022-09-06T02:37:39.537Z,22.10
2022-09-06T02:40:09.256Z,22.10
2022-09-06T02:42:37.664Z,22.00
2022-09-06T02:45:08.361Z,22.10
2022-09-06T02:47:36.817Z,22.10
2022-09-06T02:50:05.757Z,21.90
2022-09-06T02:52:34.116Z,21.90
2022-09-06T02:55:02.500Z,21.80
2022-09-06T02:57:31.002Z,22.00
2022-09-06T02:59:59.357Z,21.80
2022-09-06T03:02:29.217Z,21.90
2022-09-06T03:04:57.713Z,22.20
2022-09-06T03:07:26.194Z,22.20
2022-09-06T03:09:56.839Z,22.00
2022-09-06T03:12:25.354Z,21.70
2022-09-06T03:14:55.155Z,21.30
2022-09-06T03:17:23.581Z,21.40
2022-09-06T03:19:53.434Z,21.70
2022-09-06T03:22:21.868Z,21.80
2022-09-06T03:24:50.308Z,21.70
2022-09-06T03:27:18.720Z,21.30
2022-09-06T03:29:47.072Z,21.30
2022-09-06T03:32:15.496Z,21.60
2022-09-06T03:34:43.829Z,21.60
2022-09-06T03:37:13.640Z,21.40
2022-09-06T03:39:42.074Z,21.50
2022-09-06T03:42:10.545Z,21.60
2022-09-06T03:44:39.071Z,21.90
2022-09-06T03:47:07.764Z,22.10
2022-09-06T03:49:36.171Z,21.90
2022-09-06T03:52:04.701Z,22.00
2022-09-06T03:54:34.551Z,21.70
2022-09-06T03:57:03.076Z,21.60
2022-09-06T03:59:31.435Z,21.70
2022-09-06T04:01:59.886Z,21.50
2022-09-06T04:04:28.262Z,21.60
2022-09-06T04:06:56.710Z,21.60
2022-09-06T04:09:25.223Z,21.40
2022-09-06T04:11:55.081Z,21.20
2022-09-06T04:14:23.441Z,21.10
2022-09-06T04:16:52.116Z,21.00
2022-09-06T04:19:20.572Z,21.40
2022-09-06T04:21:49.041Z,21.60
2022-09-06T04:24:17.438Z,21.70
2022-09-06T04:26:45.899Z,21.40
2022-09-06T04:29:15.659Z,21.40
2022-09-06T04:31:44.039Z,21.40
2022-09-06T04:34:12.347Z,21.70
2022-09-06T04:36:43.603Z,21.80
2022-09-06T04:39:13.808Z,21.80
2022-09-06T04:41:42.467Z,21.60
2022-09-06T04:44:10.907Z,21.70
2022-09-06T04:46:43.369Z,21.80
2022-09-06T04:49:11.878Z,21.80
2022-09-06T04:51:40.449Z,21.80
2022-09-06T04:54:08.781Z,21.70
2022-09-06T04:59:15.021Z,21.90
2022-09-06T05:01:44.829Z,21.90
2022-09-06T05:04:13.263Z,21.70
2022-09-06T05:06:41.863Z,21.90
2022-09-06T05:09:10.380Z,21.80
2022-09-06T05:11:39.042Z,22.00
2022-09-06T05:14:07.495Z,22.00
2022-09-06T05:16:35.881Z,22.00
2022-09-06T05:19:05.598Z,22.00
2022-09-06T05:21:33.929Z,21.80
2022-09-06T05:24:02.283Z,22.00
2022-09-06T05:26:30.602Z,21.80
2022-09-06T05:28:58.916Z,21.70
2022-09-06T05:31:28.888Z,21.80
2022-09-06T05:33:58.329Z,22.00
2022-09-06T05:36:29.367Z,22.10
2022-09-06T05:38:58.936Z,22.20
2022-09-06T05:41:27.758Z,22.30
2022-09-06T05:43:56.444Z,22.50
2022-09-06T05:46:24.770Z,22.30
2022-09-06T05:48:58.069Z,22.30
2022-09-06T05:51:28.222Z,22.20
2022-09-06T05:53:56.727Z,21.90
2022-09-06T05:56:25.202Z,22.00
2022-09-06T05:58:53.606Z,22.10
2022-09-06T06:01:25.015Z,22.30
2022-09-06T06:03:55.483Z,22.30
2022-09-06T06:06:26.218Z,22.30
2022-09-06T06:08:56.391Z,22.20
2022-09-06T06:11:26.078Z,22.20
2022-09-06T06:13:55.267Z,22.10
2022-09-06T06:16:25.511Z,21.90
2022-09-06T06:18:53.993Z,22.00
2022-09-06T06:21:23.864Z,22.30
2022-09-06T06:23:54.200Z,22.70
2022-09-06T06:26:24.610Z,22.80
2022-09-06T06:28:53.471Z,23.10
2022-09-06T06:31:22.800Z,23.10
2022-09-06T06:33:51.705Z,22.80
2022-09-06T06:36:24.485Z,22.90
2022-09-06T06:38:55.355Z,23.00
2022-09-06T06:41:26.761Z,23.20
2022-09-06T06:43:56.018Z,23.30
2022-09-06T06:46:25.969Z,23.40
2022-09-06T06:48:55.768Z,23.50
2022-09-06T06:51:25.829Z,23.40
2022-09-06T06:53:54.278Z,23.60
2022-09-06T06:56:26.303Z,23.30
2022-09-06T06:58:57.804Z,23.50
2022-09-06T07:01:27.849Z,23.50
2022-09-06T07:03:56.372Z,23.50
2022-09-06T07:09:18.273Z,23.80
2022-09-06T07:11:49.531Z,24.10
2022-09-06T07:14:18.036Z,24.10
2022-09-06T07:16:46.767Z,24.10
2022-09-06T07:22:05.347Z,23.90
2022-09-06T07:24:34.488Z,24.10
2022-09-06T07:29:52.916Z,24.40
2022-09-06T07:32:21.292Z,24.40
2022-09-06T07:34:49.654Z,24.40
2022-09-06T07:37:18.141Z,24.60
2022-09-06T07:39:46.483Z,24.80
2022-09-06T07:42:17.292Z,24.70
2022-09-06T07:44:45.691Z,24.90
2022-09-06T07:53:11.039Z,25.00
2022-09-06T07:55:41.209Z,25.20
2022-09-06T07:58:11.135Z,25.50
2022-09-06T08:00:41.262Z,25.60
2022-09-06T08:03:09.940Z,25.80
2022-09-06T08:11:15.485Z,25.90
2022-09-06T08:13:45.885Z,26.00
2022-09-06T08:16:15.730Z,26.10
2022-09-06T08:18:44.551Z,26.20
2022-09-06T08:21:14.351Z,26.30
2022-09-06T08:23:46.575Z,26.30
2022-09-06T08:26:15.111Z,26.40
2022-09-06T08:28:44.959Z,26.40
2022-09-06T08:31:15.251Z,26.20
2022-09-06T08:33:44.340Z,26.50
2022-09-06T08:36:13.210Z,26.80
2022-09-06T08:38:42.013Z,26.80
2022-09-06T08:41:15.308Z,26.60
2022-09-06T08:46:48.863Z,26.60
2022-09-06T08:49:17.421Z,26.70
2022-09-06T08:52:11.066Z,26.80
2022-09-06T08:54:45.460Z,27.00
2022-09-06T08:57:27.474Z,27.10
2022-09-06T09:00:02.324Z,27.10
2022-09-06T09:02:42.758Z,27.10
2022-09-06T09:05:21.109Z,27.20
2022-09-06T09:07:59.290Z,27.20
2022-09-06T09:10:30.405Z,27.20
2022-09-06T09:13:01.748Z,27.10
2022-09-06T09:15:31.790Z,27.40
2022-09-06T09:18:01.752Z,27.40
2022-09-06T09:20:30.233Z,27.50
2022-09-06T09:22:58.671Z,27.60
2022-09-06T09:25:27.326Z,27.70
2022-09-06T09:27:58.512Z,27.70
2022-09-06T09:33:26.989Z,27.80
2022-09-06T09:35:56.629Z,27.90
2022-09-06T09:38:28.351Z,28.10
2022-09-06T09:40:58.769Z,28.20
2022-09-06T09:43:29.784Z,28.20
2022-09-06T09:46:16.924Z,28.00
2022-09-06T09:49:02.337Z,27.90
2022-09-06T09:51:32.633Z,28.10
2022-09-06T09:54:02.712Z,28.30
2022-09-06T09:59:31.469Z,28.50
2022-09-06T10:02:02.298Z,28.30
2022-09-06T10:07:14.706Z,28.50
2022-09-06T10:09:44.718Z,28.70
2022-09-06T10:12:19.309Z,28.70
2022-09-06T10:14:49.045Z,28.80
2022-09-06T10:17:30.659Z,28.80
2022-09-06T10:20:03.607Z,29.00
2022-09-06T10:22:33.309Z,29.00
2022-09-06T10:25:22.698Z,29.10
2022-09-06T10:28:11.242Z,29.10
2022-09-06T10:30:47.338Z,29.00
2022-09-06T10:33:28.956Z,29.00
2022-09-06T10:36:01.862Z,29.00
2022-09-06T10:38:43.503Z,29.30
2022-09-06T10:41:29.657Z,29.30
2022-09-06T10:44:07.829Z,29.30
2022-09-06T10:46:37.386Z,29.30
2022-09-06T10:49:06.087Z,29.30
2022-09-06T10:51:41.557Z,29.20
2022-09-06T10:54:12.252Z,29.50
2022-09-06T10:56:45.208Z,29.50
2022-09-06T10:59:38.609Z,29.50
2022-09-06T11:02:18.169Z,29.60
2022-09-06T11:10:34.431Z,29.70
2022-09-06T11:13:07.713Z,29.60
2022-09-06T11:15:43.040Z,29.70
2022-09-06T11:18:18.490Z,29.80
2022-09-06T11:20:52.173Z,30.00
2022-09-06T11:23:48.370Z,30.10
2022-09-06T11:26:35.615Z,30.20
2022-09-06T11:29:08.584Z,30.00
2022-09-06T11:34:41.308Z,29.50
2022-09-06T11:37:24.855Z,29.50
2022-09-06T11:43:16.011Z,29.40
2022-09-06T11:45:50.096Z,29.20
2022-09-06T11:48:50.949Z,29.10
2022-09-06T11:51:34.769Z,28.90
2022-09-06T11:54:11.743Z,28.90
2022-09-06T11:59:50.893Z,29.10
2022-09-06T12:02:40.990Z,29.40
2022-09-06T12:05:19.253Z,29.50
2022-09-06T12:08:31.446Z,29.60
2022-09-06T12:11:22.447Z,29.70
2022-09-06T12:14:03.318Z,29.80
2022-09-06T12:17:31.334Z,29.90
2022-09-06T12:20:07.062Z,30.00
2022-09-06T12:22:55.602Z,30.20
2022-09-06T12:25:55.073Z,30.40
2022-09-06T12:28:37.244Z,30.40
2022-09-06T12:31:29.313Z,30.40
2022-09-06T12:33:59.313Z,30.40
2022-09-06T12:36:31.153Z,30.40
2022-09-06T12:39:01.622Z,30.50
2022-09-06T12:41:32.064Z,30.60
2022-09-06T12:44:01.845Z,30.60
2022-09-06T12:46:32.949Z,30.60
2022-09-06T12:49:07.726Z,30.40
2022-09-06T12:51:37.104Z,30.50
2022-09-06T12:54:07.318Z,30.60
2022-09-06T12:56:36.198Z,30.50
2022-09-06T12:59:19.523Z,30.60
2022-09-06T13:01:55.412Z,30.60
2022-09-06T13:04:30.686Z,30.40
2022-09-06T13:07:00.133Z,30.30
2022-09-06T13:09:30.327Z,30.40
2022-09-06T13:12:05.996Z,30.50
2022-09-06T13:14:36.145Z,30.50
2022-09-06T13:17:06.132Z,30.60
2022-09-06T13:19:37.292Z,30.60
2022-09-06T13:22:08.003Z,30.50
2022-09-06T13:24:49.591Z,30.40
2022-09-06T13:27:25.425Z,30.30
2022-09-06T13:29:58.372Z,30.30
2022-09-06T13:32:28.862Z,30.50
2022-09-06T13:34:58.890Z,30.60
2022-09-06T13:37:29.147Z,30.60
2022-09-06T13:39:58.926Z,30.60
2022-09-06T13:42:30.547Z,30.60
2022-09-06T13:45:02.198Z,30.70
2022-09-06T13:47:32.220Z,30.70
2022-09-06T13:50:00.571Z,30.60
2022-09-06T13:52:29.405Z,30.60
2022-09-06T13:54:57.708Z,30.60
2022-09-06T14:00:06.500Z,30.40
2022-09-06T14:02:36.580Z,30.40
2022-09-06T14:05:05.241Z,30.40
2022-09-06T14:13:33.186Z,30.60
2022-09-06T14:16:16.376Z,30.60
2022-09-06T14:18:49.261Z,30.60
2022-09-06T14:21:18.668Z,30.60
2022-09-06T14:23:51.735Z,30.60
2022-09-06T14:26:21.210Z,30.40
2022-09-06T14:28:50.163Z,30.40
2022-09-06T14:31:20.882Z,30.50
2022-09-06T14:33:50.801Z,30.40
2022-09-06T14:36:21.248Z,30.30
2022-09-06T14:38:50.727Z,30.20
2022-09-06T14:41:21.110Z,30.20
2022-09-06T14:43:52.197Z,30.20
2022-09-06T14:46:22.202Z,30.10
2022-09-06T14:48:59.158Z,30.10
2022-09-06T14:51:27.935Z,30.30
2022-09-06T14:53:58.646Z,30.30
2022-09-06T14:56:27.271Z,30.30
2022-09-06T14:58:57.959Z,30.20
2022-09-06T15:01:28.826Z,30.20
2022-09-06T15:04:01.914Z,30.10
2022-09-06T15:06:32.173Z,29.90
2022-09-06T15:09:00.864Z,29.90
2022-09-06T15:11:31.356Z,29.80
2022-09-06T15:14:00.837Z,29.90
2022-09-06T15:16:30.062Z,30.00
2022-09-06T15:18:59.908Z,30.00
2022-09-06T15:21:28.356Z,30.00
2022-09-06T15:23:57.209Z,30.00
2022-09-06T15:26:26.694Z,30.00
2022-09-06T15:28:55.141Z,30.00
2022-09-06T15:31:23.896Z,30.00
2022-09-06T15:33:53.071Z,30.00
2022-09-06T15:36:23.146Z,29.90
2022-09-06T15:38:53.944Z,29.80
2022-09-06T15:41:25.495Z,29.80
2022-09-06T15:43:57.611Z,29.80
2022-09-06T15:46:46.138Z,29.80
2022-09-06T15:49:17.070Z,29.70
2022-09-06T15:51:48.131Z,29.60
2022-09-06T15:54:18.642Z,29.60
2022-09-06T15:56:46.337Z,29.50
2022-09-06T15:59:14.917Z,29.50
2022-09-06T16:01:43.550Z,29.50
2022-09-06T16:04:12.447Z,29.40
2022-09-06T16:06:42.783Z,29.30
2022-09-06T16:09:15.039Z,29.20
2022-09-06T16:11:43.824Z,29.20
2022-09-06T16:14:14.373Z,29.20
2022-09-06T16:16:43.548Z,29.10
2022-09-06T16:19:13.181Z,29.00
2022-09-06T16:21:43.553Z,29.10
2022-09-06T16:24:14.703Z,29.00
2022-09-06T16:26:46.624Z,29.00
2022-09-06T16:29:18.189Z,28.90
2022-09-06T16:31:46.976Z,28.80
2022-09-06T16:34:16.207Z,28.90
2022-09-06T16:36:44.792Z,28.80
2022-09-06T16:39:14.769Z,28.80
2022-09-06T16:41:44.635Z,28.70
2022-09-06T16:44:16.834Z,28.70
2022-09-06T16:46:46.771Z,28.60
2022-09-06T16:49:17.193Z,28.70
2022-09-06T16:51:46.504Z,28.60
2022-09-06T16:54:16.660Z,28.60
2022-09-06T16:56:45.685Z,28.50
2022-09-06T16:59:17.338Z,28.50
2022-09-06T17:01:46.328Z,28.30
2022-09-06T17:04:15.359Z,28.30
2022-09-06T17:06:45.871Z,28.30
2022-09-06T17:09:18.812Z,28.20
2022-09-06T17:11:50.063Z,28.00
2022-09-06T17:14:19.255Z,28.00
2022-09-06T17:17:05.083Z,28.00
2022-09-06T17:19:36.701Z,28.00
2022-09-06T17:22:05.510Z,28.00
2022-09-06T17:24:35.836Z,27.90
2022-09-06T17:27:04.606Z,27.80
2022-09-06T17:29:33.207Z,27.70
2022-09-06T17:32:02.168Z,27.70
2022-09-06T17:34:30.610Z,27.70
2022-09-06T17:36:59.074Z,27.70
2022-09-06T17:39:27.520Z,27.60
2022-09-06T17:41:58.331Z,27.60
2022-09-06T17:44:27.711Z,27.60
2022-09-06T17:47:12.008Z,27.60
2022-09-06T17:49:41.241Z,27.30
2022-09-06T17:52:09.844Z,27.40
2022-09-06T17:54:38.207Z,27.30
2022-09-06T17:57:08.048Z,27.40
2022-09-06T17:59:36.507Z,27.20
2022-09-06T18:02:06.114Z,27.20
2022-09-06T18:04:34.692Z,27.10
2022-09-06T18:07:03.324Z,27.10
2022-09-06T18:09:31.864Z,27.20
2022-09-06T18:12:00.327Z,27.20
2022-09-06T18:14:32.754Z,27.20
2022-09-06T18:17:01.229Z,27.20
2022-09-06T18:19:30.019Z,27.10
2022-09-06T18:21:59.049Z,27.10
2022-09-06T18:24:27.841Z,27.00
2022-09-06T18:26:56.390Z,27.00
2022-09-06T18:29:24.915Z,27.00
2022-09-06T18:31:55.342Z,27.00
2022-09-06T18:34:24.045Z,26.80
2022-09-06T18:36:52.598Z,26.90
2022-09-06T18:39:21.175Z,26.90
2022-09-06T18:42:02.227Z,26.80
2022-09-06T18:44:33.303Z,26.80
2022-09-06T18:47:05.749Z,26.70
2022-09-06T18:49:35.080Z,26.60
2022-09-06T18:52:04.867Z,26.70
2022-09-06T18:54:33.928Z,26.80
2022-09-06T18:57:02.393Z,26.90
2022-09-06T18:59:30.965Z,26.80
2022-09-06T19:02:00.148Z,26.70
2022-09-06T19:04:31.127Z,26.70
2022-09-06T19:07:02.179Z,26.80
2022-09-06T19:09:30.685Z,26.70
2022-09-06T19:11:59.116Z,26.60
2022-09-06T19:14:30.017Z,26.70
2022-09-06T19:16:59.925Z,26.50
2022-09-06T19:19:29.833Z,26.30
2022-09-06T19:21:58.591Z,26.30
2022-09-06T19:24:27.075Z,26.30
2022-09-06T19:26:56.333Z,26.30
2022-09-06T19:29:24.915Z,26.40
2022-09-06T19:31:54.497Z,26.30
2022-09-06T19:34:23.591Z,26.30
2022-09-06T19:36:55.477Z,26.20
2022-09-06T19:39:32.203Z,26.40
2022-09-06T19:42:01.258Z,26.50
2022-09-06T19:44:29.845Z,26.40
2022-09-06T19:46:59.957Z,26.40
2022-09-06T19:49:29.703Z,26.40
2022-09-06T19:51:59.621Z,26.20
2022-09-06T19:54:28.285Z,26.20
2022-09-06T19:56:56.768Z,26.30
2022-09-06T19:59:25.312Z,26.30
2022-09-06T20:01:54.262Z,26.30
2022-09-06T20:04:22.966Z,26.30
2022-09-06T20:06:51.731Z,26.10
2022-09-06T20:09:23.156Z,26.10
2022-09-06T20:11:51.691Z,26.10
2022-09-06T20:14:20.207Z,26.10
2022-09-06T20:16:48.683Z,26.20
2022-09-06T20:19:17.380Z,26.20
2022-09-06T20:21:45.867Z,26.20
2022-09-06T20:24:14.604Z,26.20
2022-09-06T20:26:44.473Z,25.90
2022-09-06T20:29:13.473Z,25.90
2022-09-06T20:31:41.999Z,25.50
2022-09-06T20:34:11.244Z,25.40
2022-09-06T20:36:39.678Z,25.40
2022-09-06T20:39:08.157Z,25.50
2022-09-06T20:41:36.624Z,25.60
2022-09-06T20:44:06.537Z,25.70
2022-09-06T20:46:36.526Z,25.40
2022-09-06T20:49:06.806Z,25.60
2022-09-06T20:51:38.812Z,25.40
2022-09-06T20:54:10.419Z,25.30
2022-09-06T20:56:40.415Z,25.20
2022-09-06T20:59:11.956Z,25.20
2022-09-06T21:01:43.057Z,25.40
2022-09-06T21:04:13.088Z,25.40
2022-09-06T21:06:42.447Z,25.50
2022-09-06T21:09:13.049Z,25.40
2022-09-06T21:11:42.753Z,25.50
2022-09-06T21:14:13.902Z,25.60
2022-09-06T21:16:42.426Z,25.40
2022-09-06T21:19:12.179Z,25.00
2022-09-06T21:21:40.960Z,25.00
2022-09-06T21:24:10.949Z,24.80
2022-09-06T21:26:39.776Z,24.90
2022-09-06T21:29:08.261Z,24.90
2022-09-06T21:31:38.752Z,24.70
2022-09-06T21:34:15.474Z,24.90
2022-09-06T21:36:45.328Z,25.00
2022-09-06T21:39:14.077Z,25.20
2022-09-06T21:41:44.212Z,25.30
2022-09-06T21:44:13.420Z,25.30
2022-09-06T21:46:43.407Z,25.40
2022-09-06T21:49:16.448Z,25.40
2022-09-06T21:51:44.921Z,25.40
2022-09-06T21:54:13.414Z,25.20
2022-09-06T21:56:42.550Z,25.20
2022-09-06T21:59:11.678Z,25.10
2022-09-06T22:01:43.938Z,25.10
2022-09-06T22:04:15.295Z,25.10
2022-09-06T22:06:43.741Z,25.20
2022-09-06T22:09:13.938Z,25.30
2022-09-06T22:11:43.927Z,25.20
2022-09-06T22:14:14.122Z,25.20
2022-09-06T22:16:43.407Z,25.30
2022-09-06T22:19:12.234Z,25.20
2022-09-06T22:21:42.148Z,25.40
2022-09-06T22:24:12.732Z,25.40
2022-09-06T22:26:42.396Z,25.40
2022-09-06T22:29:13.767Z,25.30
2022-09-06T22:31:42.718Z,25.20
2022-09-06T22:34:11.801Z,25.00
2022-09-06T22:36:42.074Z,25.10
2022-09-06T22:39:10.682Z,25.20
2022-09-06T22:41:39.488Z,25.10
2022-09-06T22:44:08.590Z,25.10
2022-09-06T22:46:37.847Z,25.00
2022-09-06T22:49:06.540Z,24.50
2022-09-06T22:51:34.999Z,24.30
2022-09-06T22:54:05.789Z,24.40
2022-09-06T22:56:34.295Z,24.70
2022-09-06T22:59:02.927Z,24.50
2022-09-06T23:01:33.022Z,24.70
2022-09-06T23:04:02.492Z,24.70
2022-09-06T23:06:30.959Z,24.80
2022-09-06T23:08:59.945Z,24.70
2022-09-06T23:11:32.650Z,24.80
2022-09-06T23:14:01.691Z,24.80
2022-09-06T23:16:30.324Z,24.80
2022-09-06T23:18:58.955Z,24.40
2022-09-06T23:21:27.994Z,24.10
2022-09-06T23:23:57.768Z,24.00
2022-09-06T23:26:29.387Z,24.20
2022-09-06T23:28:59.344Z,24.20
2022-09-06T23:31:29.759Z,24.10
2022-09-06T23:34:00.072Z,24.10
2022-09-06T23:36:29.505Z,24.10
2022-09-06T23:38:58.245Z,24.20
2022-09-06T23:41:26.894Z,24.40
2022-09-06T23:43:55.790Z,24.40
2022-09-06T23:46:25.715Z,24.40
2022-09-06T23:48:54.226Z,24.40
2022-09-06T23:51:22.853Z,24.50
2022-09-06T23:53:51.354Z,24.40
2022-09-06T23:56:20.944Z,24.50
2022-09-06T23:58:49.401Z,24.30
